Terminal Aerodrome Forecast
Issued by NWS

Home | Current Version | Previous Version | Text Only | Print | Product List | Glossary On
Versions: 1 2 3 4 5 6 7 8 9 10 11 12 13 14 15 16 17 18
000
FTUS45 KSLC 231134
TAFSGU
TAF
KSGU 231134Z 2312/2412 12008KT P6SM -RA SCT015 BKN035
     FM231800 24010KT P6SM VCSH SCT020 BKN050
     FM240300 VRB04KT P6SM SCT060 BKN120
      AMD LTD TO CLD VIS AND WIND=

USA.gov is the U.S. government's official web portal to all federal, state and local government web resources and services.